createdAt,value
2023-04-12T00:01:14.923Z,99356.00
2023-04-12T00:04:18.269Z,99349.91
2023-04-12T00:07:21.299Z,99367.06
2023-04-12T00:10:23.277Z,99364.53
2023-04-12T00:13:25.098Z,99344.81
2023-04-12T00:16:27.170Z,99358.59
2023-04-12T00:19:31.040Z,99321.72
2023-04-12T00:22:32.859Z,99346.50
2023-04-12T00:25:34.653Z,99351.59
2023-04-12T00:28:36.374Z,99275.69
2023-04-12T00:31:38.185Z,99337.28
2023-04-12T00:34:40.063Z,99325.50
2023-04-12T00:37:41.842Z,99336.09
2023-04-12T00:40:44.177Z,99340.41
2023-04-12T00:43:45.872Z,99320.56
2023-04-12T00:46:48.842Z,99284.56
2023-04-12T00:49:53.492Z,99314.84
2023-04-12T00:52:55.721Z,99311.34
2023-04-12T00:55:58.586Z,99287.53
2023-04-12T00:59:00.549Z,99330.66
2023-04-12T01:02:03.285Z,99310.03
2023-04-12T01:05:06.049Z,99318.56
2023-04-12T01:08:51.378Z,99324.41
2023-04-12T01:12:09.031Z,99324.50
2023-04-12T01:15:16.875Z,99308.41
2023-04-12T01:18:25.454Z,99311.13
2023-04-12T01:21:45.301Z,99298.13
2023-04-12T01:24:55.982Z,99321.38
2023-04-12T01:28:01.472Z,99305.84
2023-04-12T01:31:04.228Z,99323.09
2023-04-12T01:34:06.300Z,99313.47
2023-04-12T01:37:09.697Z,99317.72
2023-04-12T01:40:13.619Z,99321.28
2023-04-12T01:43:16.385Z,99307.47
2023-04-12T01:46:24.765Z,99272.38
2023-04-12T01:49:43.698Z,99309.00
2023-04-12T01:52:59.382Z,99313.13
2023-04-12T01:56:07.210Z,99308.75
2023-04-12T01:59:12.185Z,99324.16
2023-04-12T02:02:14.364Z,99305.09
2023-04-12T02:05:17.811Z,99312.72
2023-04-12T02:08:19.709Z,99323.75
2023-04-12T02:11:21.410Z,99321.19
2023-04-12T02:14:23.203Z,99310.06
2023-04-12T02:17:25.195Z,99319.22
2023-04-12T02:20:27.474Z,99313.91
2023-04-12T02:23:29.306Z,99313.16
2023-04-12T02:26:31.100Z,99310.84
2023-04-12T02:29:33.644Z,99313.69
2023-04-12T02:32:44.583Z,99315.19
2023-04-12T02:35:52.859Z,99283.56
2023-04-12T02:38:56.313Z,99322.00
2023-04-12T02:41:59.462Z,99308.13
2023-04-12T02:45:01.442Z,99308.13
2023-04-12T02:48:05.434Z,99311.50
2023-04-12T02:51:07.732Z,99305.41
2023-04-12T02:54:10.479Z,99312.22
2023-04-12T02:57:29.323Z,99310.53
2023-04-12T03:00:31.447Z,99299.25
2023-04-12T03:03:35.643Z,99302.66
2023-04-12T03:06:53.809Z,99300.94
2023-04-12T03:10:07.375Z,99294.00
2023-04-12T03:13:13.828Z,99295.69
2023-04-12T03:16:23.646Z,99307.81
2023-04-12T03:19:33.046Z,99270.63
2023-04-12T03:22:35.036Z,99202.94
2023-04-12T03:25:37.477Z,99313.47
2023-04-12T03:29:10.729Z,99311.88
2023-04-12T03:32:15.851Z,99310.25
2023-04-12T03:35:20.632Z,99326.94
2023-04-12T03:38:23.625Z,99339.97
2023-04-12T03:41:26.165Z,99309.59
2023-04-12T03:44:28.066Z,99324.69
2023-04-12T03:47:33.225Z,99336.94
2023-04-12T03:50:44.235Z,99343.88
2023-04-12T03:53:51.741Z,99343.97
2023-04-12T03:56:54.534Z,99345.78
2023-04-12T04:00:02.948Z,99353.66
2023-04-12T04:03:20.230Z,99308.28
2023-04-12T04:06:31.085Z,99342.50
2023-04-12T04:09:33.834Z,99311.78
2023-04-12T04:12:35.717Z,99355.78
2023-04-12T04:15:38.252Z,99348.88
2023-04-12T04:18:40.057Z,99350.56
2023-04-12T04:21:45.219Z,99356.47
2023-04-12T04:24:48.434Z,99368.69
2023-04-12T04:27:51.124Z,99364.63
2023-04-12T04:30:56.937Z,99371.47
2023-04-12T04:33:59.643Z,99370.47
2023-04-12T04:37:05.324Z,99370.56
2023-04-12T04:40:11.831Z,99389.50
2023-04-12T04:43:15.083Z,99361.72
2023-04-12T04:46:22.155Z,99382.22
2023-04-12T04:49:24.248Z,99387.47
2023-04-12T04:52:26.257Z,99391.59
2023-04-12T04:55:33.342Z,99378.47
2023-04-12T04:58:38.756Z,99382.59
2023-04-12T05:01:43.257Z,99378.53
2023-04-12T05:04:45.383Z,99372.53
2023-04-12T05:07:50.106Z,99381.75
2023-04-12T05:10:53.281Z,99365.63
2023-04-12T05:13:57.382Z,99376.72
2023-04-12T05:17:00.858Z,99369.50
2023-04-12T05:20:03.003Z,99345.38
2023-04-12T05:23:04.741Z,99369.13
2023-04-12T05:26:06.881Z,99374.06
2023-04-12T05:29:11.410Z,99348.16
2023-04-12T05:32:15.070Z,99364.47
2023-04-12T05:35:22.418Z,99372.75
2023-04-12T05:38:27.680Z,99361.78
2023-04-12T05:41:32.507Z,99377.25
2023-04-12T05:44:39.273Z,99337.47
2023-04-12T05:47:44.617Z,99354.97
2023-04-12T05:50:53.881Z,99373.38
2023-04-12T05:53:57.565Z,99373.00
2023-04-12T05:57:02.308Z,99373.69
2023-04-12T06:00:18.694Z,99389.34
2023-04-12T06:03:23.720Z,99357.19
2023-04-12T06:06:30.273Z,99376.69
2023-04-12T06:09:33.314Z,99376.06
2023-04-12T06:12:35.500Z,99372.38
2023-04-12T06:15:37.368Z,99365.94
2023-04-12T06:18:39.159Z,99371.44
2023-04-12T06:21:41.219Z,99359.22
2023-04-12T06:24:44.137Z,99370.75
2023-04-12T06:27:46.927Z,99376.25
2023-04-12T06:30:51.373Z,99379.84
2023-04-12T06:33:53.296Z,99360.28
2023-04-12T06:36:55.191Z,99352.00
2023-04-12T06:39:57.021Z,99347.31
2023-04-12T06:42:58.884Z,99354.19
2023-04-12T06:46:03.047Z,99368.25
2023-04-12T06:49:05.030Z,99354.81
2023-04-12T06:52:06.756Z,99311.97
2023-04-12T06:55:09.431Z,99375.84
2023-04-12T06:58:11.528Z,99352.44
2023-04-12T07:01:15.991Z,99364.16
2023-04-12T07:04:18.027Z,99384.44
2023-04-12T07:07:21.118Z,99390.00
2023-04-12T07:10:22.987Z,99311.53
2023-04-12T07:13:24.824Z,99352.78
2023-04-12T07:16:26.552Z,99376.91
2023-04-12T07:19:29.820Z,99392.31
2023-04-12T07:22:31.580Z,99394.84
2023-04-12T07:25:33.387Z,99392.94
2023-04-12T07:28:39.186Z,99375.19
2023-04-12T07:31:41.155Z,99406.59
2023-04-12T07:34:42.935Z,99410.22
2023-04-12T07:37:46.085Z,99395.59
2023-04-12T07:40:50.061Z,99359.44
2023-04-12T07:43:52.273Z,99407.25
2023-04-12T07:46:55.317Z,99393.34
2023-04-12T07:49:57.674Z,99392.47
2023-04-12T07:53:19.171Z,99397.16
2023-04-12T07:56:21.262Z,99411.75
2023-04-12T07:59:23.037Z,99387.25
2023-04-12T08:02:25.219Z,99358.53
2023-04-12T08:05:27.159Z,99336.94
2023-04-12T08:08:28.900Z,99293.91
2023-04-12T08:11:30.687Z,99373.16
2023-04-12T08:14:33.242Z,99344.69
2023-04-12T08:17:35.157Z,99372.50
2023-04-12T08:20:37.321Z,99385.78
2023-04-12T08:23:39.375Z,99383.63
2023-04-12T08:26:41.609Z,99382.88
2023-04-12T08:29:43.352Z,99379.75
2023-04-12T08:32:45.337Z,99340.31
2023-04-12T08:35:47.307Z,99385.22
2023-04-12T08:38:52.553Z,99376.75
2023-04-12T08:41:56.639Z,99372.91
2023-04-12T08:44:58.549Z,99382.38
2023-04-12T08:48:03.977Z,99381.66
2023-04-12T08:51:07.199Z,99358.03
2023-04-12T08:54:08.992Z,99373.69
2023-04-12T08:57:12.166Z,99368.47
2023-04-12T09:00:15.909Z,99357.00
2023-04-12T09:03:17.892Z,99371.53
2023-04-12T09:06:20.090Z,99356.75
2023-04-12T09:09:47.560Z,99369.41
2023-04-12T09:12:50.923Z,99364.34
2023-04-12T09:15:54.117Z,99363.72
2023-04-12T09:18:56.620Z,99360.28
2023-04-12T09:21:58.807Z,99368.66
2023-04-12T09:25:01.052Z,99365.56
2023-04-12T09:28:05.247Z,99356.38
2023-04-12T09:31:16.294Z,99373.53
2023-04-12T09:34:18.358Z,99355.81
2023-04-12T09:37:20.094Z,99334.94
2023-04-12T09:40:24.770Z,99361.72
2023-04-12T09:43:40.744Z,99279.19
2023-04-12T09:47:05.196Z,99357.34
2023-04-12T09:50:08.612Z,99357.94
2023-04-12T09:53:18.652Z,99356.06
2023-04-12T09:56:23.019Z,99343.38
2023-04-12T09:59:27.627Z,99353.44
2023-04-12T10:02:32.496Z,99351.44
2023-04-12T10:05:36.649Z,99326.69
2023-04-12T10:08:39.236Z,99357.78
2023-04-12T10:11:44.994Z,99369.47
2023-04-12T10:14:49.890Z,99335.09
2023-04-12T10:17:53.177Z,99303.91
2023-04-12T10:20:55.711Z,99365.50
2023-04-12T10:23:58.304Z,99353.41
2023-04-12T10:27:04.450Z,99371.41
2023-04-12T10:30:19.979Z,99369.22
2023-04-12T10:33:27.697Z,99370.97
2023-04-12T10:36:52.462Z,99387.00
2023-04-12T10:39:55.035Z,99365.03
2023-04-12T10:43:24.975Z,99373.13
2023-04-12T10:46:39.509Z,99363.56
2023-04-12T10:50:22.618Z,99362.00
2023-04-12T10:53:25.427Z,99356.06
2023-04-12T10:56:33.173Z,99358.22
2023-04-12T10:59:51.081Z,99362.22
2023-04-12T11:03:12.527Z,99368.44
2023-04-12T11:09:43.429Z,99368.69
2023-04-12T11:12:52.597Z,99371.00
2023-04-12T11:16:01.462Z,99347.66
2023-04-12T11:19:03.381Z,99377.78
2023-04-12T11:22:06.624Z,99295.53
2023-04-12T11:25:08.892Z,99365.16
2023-04-12T11:28:27.984Z,99361.38
2023-04-12T11:31:31.701Z,99361.22
2023-04-12T11:34:34.880Z,99351.03
2023-04-12T11:37:37.861Z,99328.03
2023-04-12T11:40:39.610Z,99342.25
2023-04-12T11:43:41.697Z,99348.41
2023-04-12T11:46:44.196Z,99350.34
2023-04-12T11:49:57.113Z,99351.34
2023-04-12T11:53:11.340Z,99346.75
2023-04-12T11:56:13.065Z,99340.13
2023-04-12T11:59:14.797Z,99347.38
2023-04-12T12:02:23.799Z,99322.91
2023-04-12T12:05:28.052Z,99342.69
2023-04-12T12:08:30.096Z,99325.47
2023-04-12T12:11:36.051Z,99342.59
2023-04-12T12:14:38.170Z,99342.94
2023-04-12T12:17:39.930Z,99339.94
2023-04-12T12:20:50.206Z,99334.84
2023-04-12T12:23:52.067Z,99334.66
2023-04-12T12:26:54.861Z,99334.41
2023-04-12T12:30:01.748Z,99338.00
2023-04-12T12:33:03.767Z,99328.84
2023-04-12T12:36:06.809Z,99334.06
2023-04-12T12:39:11.242Z,99336.53
2023-04-12T12:42:13.497Z,99320.31
2023-04-12T12:45:16.753Z,99288.41
2023-04-12T12:48:21.098Z,99298.66
2023-04-12T12:51:22.976Z,99321.00
2023-04-12T12:54:39.541Z,99324.94
2023-04-12T12:57:45.246Z,99324.38
2023-04-12T13:00:49.781Z,99312.47
2023-04-12T13:03:53.522Z,99304.75
2023-04-12T13:06:55.808Z,99315.19
2023-04-12T13:10:05.106Z,99318.25
2023-04-12T13:13:07.235Z,99304.75
2023-04-12T13:16:09.860Z,99309.34
2023-04-12T13:19:11.718Z,99298.31
2023-04-12T13:22:17.668Z,99305.75
2023-04-12T13:25:20.115Z,99317.13
2023-04-12T13:28:22.011Z,99316.09
2023-04-12T13:31:23.811Z,99310.09
2023-04-12T13:34:25.991Z,99300.56
2023-04-12T13:37:27.834Z,99295.66
2023-04-12T13:40:29.994Z,99296.72
2023-04-12T13:43:31.931Z,99281.38
2023-04-12T13:46:33.870Z,99304.06
2023-04-12T13:49:36.014Z,99284.19
2023-04-12T13:52:40.497Z,99296.63
2023-04-12T13:55:42.252Z,99307.69
2023-04-12T13:58:44.184Z,99288.25
2023-04-12T14:01:46.511Z,99293.13
2023-04-12T14:04:53.651Z,99303.34
2023-04-12T14:07:55.935Z,99288.97
2023-04-12T14:10:57.747Z,99291.75
2023-04-12T14:13:59.455Z,99281.84
2023-04-12T14:17:02.102Z,99299.97
2023-04-12T14:20:06.870Z,99294.97
2023-04-12T14:23:08.586Z,99292.69
2023-04-12T14:26:15.936Z,99289.50
2023-04-12T14:29:18.195Z,99281.44
2023-04-12T14:32:19.968Z,99286.75
2023-04-12T14:35:21.837Z,99306.31
2023-04-12T14:38:23.842Z,99288.63
2023-04-12T14:41:25.892Z,99296.53
2023-04-12T14:44:30.050Z,99284.63
2023-04-12T14:47:33.093Z,99299.09
2023-04-12T14:50:34.849Z,99267.38
2023-04-12T14:53:36.740Z,99299.28
2023-04-12T14:56:46.341Z,99284.56
2023-04-12T14:59:50.789Z,99302.78
2023-04-12T15:02:53.061Z,99272.69
2023-04-12T15:05:55.010Z,99296.91
2023-04-12T15:08:57.503Z,99304.97
2023-04-12T15:12:02.195Z,99294.06
2023-04-12T15:15:06.293Z,99302.31
2023-04-12T15:18:08.870Z,99307.28
2023-04-12T15:21:12.051Z,99312.44
2023-04-12T15:24:13.768Z,99311.34
2023-04-12T15:27:15.643Z,99237.84
2023-04-12T15:30:17.952Z,99313.84
2023-04-12T15:33:21.418Z,99307.69
2023-04-12T15:36:34.400Z,99313.28
2023-04-12T15:39:36.584Z,99321.25
2023-04-12T15:42:38.261Z,99311.91
2023-04-12T15:45:41.760Z,99329.41
2023-04-12T15:48:43.675Z,99312.94
2023-04-12T15:51:45.441Z,99342.09
2023-04-12T15:54:47.133Z,99291.88
2023-04-12T15:57:48.890Z,99346.44
2023-04-12T16:00:53.024Z,99347.19
2023-04-12T16:03:55.768Z,99296.16
2023-04-12T16:07:02.049Z,99339.03
2023-04-12T16:10:06.303Z,99343.34
2023-04-12T16:13:10.194Z,99344.41
2023-04-12T16:16:13.888Z,99341.09
2023-04-12T16:19:16.863Z,99353.94
2023-04-12T16:22:18.749Z,99315.78
2023-04-12T16:25:23.519Z,99348.72
2023-04-12T16:28:26.428Z,99343.63
2023-04-12T16:31:28.200Z,99335.50
2023-04-12T16:34:30.678Z,99356.59
2023-04-12T16:37:32.494Z,99344.44
2023-04-12T16:40:34.223Z,99348.06
2023-04-12T16:43:36.424Z,99357.69
2023-04-12T16:46:38.308Z,99346.50
2023-04-12T16:49:40.149Z,99346.81
2023-04-12T16:52:42.102Z,99359.19
2023-04-12T16:55:46.645Z,99351.50
2023-04-12T16:58:49.063Z,99357.19
2023-04-12T17:01:50.934Z,99349.53
2023-04-12T17:04:54.654Z,99340.81
2023-04-12T17:07:57.502Z,99349.53
2023-04-12T17:10:59.676Z,99355.13
2023-04-12T17:14:01.548Z,99357.94
2023-04-12T17:17:05.027Z,99359.66
2023-04-12T17:20:12.502Z,99342.72
2023-04-12T17:23:15.740Z,99362.94
2023-04-12T17:26:19.083Z,99348.06
2023-04-12T17:29:20.920Z,99372.75
2023-04-12T17:32:22.820Z,99368.22
2023-04-12T17:35:24.708Z,99364.97
2023-04-12T17:38:27.850Z,99309.63
2023-04-12T17:41:29.575Z,99369.19
2023-04-12T17:44:32.388Z,99375.59
2023-04-12T17:47:34.809Z,99373.03
2023-04-12T17:50:36.591Z,99368.09
2023-04-12T17:53:38.320Z,99364.78
2023-04-12T17:56:39.978Z,99379.69
2023-04-12T17:59:42.127Z,99341.63
2023-04-12T18:02:43.906Z,99386.75
2023-04-12T18:05:46.392Z,99378.50
2023-04-12T18:08:48.150Z,99391.16
2023-04-12T18:11:50.119Z,99354.84
2023-04-12T18:14:51.818Z,99390.31
2023-04-12T18:17:55.675Z,99388.06
2023-04-12T18:20:57.605Z,99384.13
2023-04-12T18:24:02.324Z,99383.44
2023-04-12T18:27:05.412Z,99377.72
2023-04-12T18:30:08.371Z,99402.31
2023-04-12T18:33:10.444Z,99406.97
2023-04-12T18:36:12.757Z,99389.16
2023-04-12T18:39:16.432Z,99400.78
2023-04-12T18:42:18.067Z,99370.75
2023-04-12T18:45:21.285Z,99388.81
2023-04-12T18:48:28.418Z,99413.44
2023-04-12T18:51:31.845Z,99376.06
2023-04-12T18:54:33.587Z,99399.28
2023-04-12T18:57:36.745Z,99405.34
2023-04-12T19:00:41.796Z,99408.06
2023-04-12T19:03:48.231Z,99354.72
2023-04-12T19:06:55.522Z,99394.91
2023-04-12T19:15:15.392Z,99408.84
2023-04-12T19:26:10.582Z,99295.13
2023-04-12T19:41:05.096Z,99314.19
2023-04-12T19:44:27.343Z,99270.50
2023-04-12T19:47:29.117Z,99402.09
2023-04-12T19:50:36.221Z,99406.78
2023-04-12T19:53:39.026Z,99398.44
2023-04-12T19:56:44.023Z,99361.75
2023-04-12T19:59:45.727Z,99389.41
2023-04-12T20:02:49.456Z,99402.31
2023-04-12T20:05:51.637Z,99394.25
2023-04-12T20:08:53.807Z,99384.19
2023-04-12T20:11:56.625Z,99387.75
2023-04-12T20:15:00.515Z,99394.72
2023-04-12T20:18:02.372Z,99391.03
2023-04-12T20:21:09.920Z,99299.66
2023-04-12T20:24:12.460Z,99397.22
2023-04-12T20:27:17.504Z,99416.81
2023-04-12T20:30:21.532Z,99395.59
2023-04-12T20:33:23.189Z,99392.50
2023-04-12T20:36:26.965Z,99372.47
2023-04-12T20:39:29.644Z,99407.16
2023-04-12T20:42:31.450Z,99417.75
2023-04-12T20:45:34.786Z,99411.16
2023-04-12T20:48:38.490Z,99416.63
2023-04-12T20:51:40.299Z,99417.91
2023-04-12T20:54:42.113Z,99406.19
2023-04-12T20:57:45.307Z,99416.50
2023-04-12T21:00:47.681Z,99415.59
2023-04-12T21:07:19.619Z,99390.19
2023-04-12T21:10:22.632Z,99404.19
2023-04-12T21:13:26.655Z,99407.03
2023-04-12T21:16:28.418Z,99405.44
2023-04-12T21:19:30.822Z,99396.38
2023-04-12T21:22:35.864Z,99403.41
2023-04-12T21:25:37.684Z,99413.06
2023-04-12T21:28:39.530Z,99422.56
2023-04-12T21:31:41.748Z,99378.28
2023-04-12T21:34:47.518Z,99412.72
2023-04-12T21:38:05.099Z,99424.00
2023-04-12T21:41:11.280Z,99443.88
2023-04-12T21:44:13.336Z,99439.84
2023-04-12T21:47:17.542Z,99388.28
2023-04-12T21:50:19.383Z,99383.44
2023-04-12T21:53:22.883Z,99416.94
2023-04-12T21:56:29.312Z,99410.06
2023-04-12T21:59:31.185Z,99400.09
2023-04-12T22:02:37.389Z,99373.63
2023-04-12T22:05:40.010Z,99386.31
2023-04-12T22:09:30.660Z,99369.91
2023-04-12T22:12:07.702Z,99370.72
2023-04-12T22:15:11.970Z,99358.09
2023-04-12T22:18:16.799Z,99411.38
2023-04-12T22:21:18.591Z,99409.06
2023-04-12T22:24:21.549Z,99407.53
2023-04-12T22:27:26.474Z,99389.78
2023-04-12T22:30:30.578Z,99393.03
2023-04-12T22:33:32.401Z,99379.31
2023-04-12T22:36:39.112Z,99410.00
2023-04-12T22:39:42.906Z,99394.47
2023-04-12T22:42:47.666Z,99400.47
2023-04-12T22:45:49.418Z,99411.88
2023-04-12T22:48:51.144Z,99363.28
2023-04-12T22:51:52.946Z,99400.31
2023-04-12T22:54:54.977Z,99397.75
2023-04-12T22:57:57.121Z,99366.97
2023-04-12T23:00:58.951Z,99380.75
2023-04-12T23:04:03.128Z,99378.81
2023-04-12T23:07:04.949Z,99377.88
2023-04-12T23:10:08.249Z,99384.78
2023-04-12T23:13:13.829Z,99371.00
2023-04-12T23:16:16.400Z,99378.81
2023-04-12T23:19:19.141Z,99374.03
2023-04-12T23:22:55.866Z,99401.69
2023-04-12T23:25:59.600Z,99387.13
2023-04-12T23:29:03.631Z,99372.66
2023-04-12T23:32:05.671Z,99371.13
2023-04-12T23:35:07.787Z,99381.44
2023-04-12T23:38:11.045Z,99408.47
2023-04-12T23:41:12.916Z,99388.00
2023-04-12T23:44:15.139Z,99302.94
2023-04-12T23:47:16.836Z,99381.97
2023-04-12T23:50:18.646Z,99369.16
2023-04-12T23:53:21.528Z,99393.25
2023-04-12T23:56:23.280Z,99370.22
2023-04-12T23:59:27.056Z,99373.56
